createdAt,value
2019-02-10T00:00:21.970Z,8.28
2019-02-10T00:02:51.792Z,8.30
2019-02-10T00:05:21.091Z,8.25
2019-02-10T00:07:50.661Z,8.22
2019-02-10T00:10:20.348Z,8.19
2019-02-10T00:13:24.794Z,8.19
2019-02-10T00:15:54.541Z,8.20
2019-02-10T00:18:23.870Z,8.30
2019-02-10T00:20:53.163Z,8.25
2019-02-10T00:23:22.610Z,8.21
2019-02-10T00:25:52.078Z,8.18
2019-02-10T00:28:21.508Z,8.13
2019-02-10T00:30:50.952Z,8.13
2019-02-10T00:33:20.269Z,8.19
2019-02-10T00:35:49.631Z,8.10
2019-02-10T00:38:19.058Z,8.03
2019-02-10T00:40:48.532Z,7.95
2019-02-10T00:43:17.968Z,7.92
2019-02-10T00:45:47.340Z,7.96
2019-02-10T00:48:16.628Z,7.92
2019-02-10T00:50:46.008Z,7.92
2019-02-10T00:53:15.328Z,7.96
2019-02-10T00:55:44.636Z,7.97
2019-02-10T00:58:14.530Z,7.98
2019-02-10T01:00:44.678Z,7.99
2019-02-10T01:03:14.430Z,7.88
2019-02-10T01:05:43.912Z,7.90
2019-02-10T01:08:13.411Z,7.85
2019-02-10T01:10:42.787Z,7.82
2019-02-10T01:13:12.319Z,7.77
2019-02-10T01:15:41.706Z,7.75
2019-02-10T01:18:11.100Z,7.74
2019-02-10T01:20:40.555Z,7.82
2019-02-10T01:23:09.986Z,7.87
2019-02-10T01:25:39.425Z,7.93
2019-02-10T01:28:08.836Z,7.86
2019-02-10T01:30:39.130Z,7.85
2019-02-10T01:33:08.549Z,7.95
2019-02-10T01:35:37.854Z,8.02
2019-02-10T01:38:08.516Z,8.12
2019-02-10T01:40:37.998Z,8.07
2019-02-10T01:43:07.532Z,7.85
2019-02-10T01:45:39.977Z,7.67
2019-02-10T01:48:09.425Z,7.51
2019-02-10T01:50:44.632Z,7.35
2019-02-10T01:53:14.636Z,7.19
2019-02-10T01:55:53.945Z,7.06
2019-02-10T01:58:46.023Z,7.00
2019-02-10T02:01:34.053Z,6.98
2019-02-10T02:04:11.897Z,7.06
2019-02-10T02:07:06.118Z,7.09
2019-02-10T02:09:39.078Z,7.18
2019-02-10T02:12:09.575Z,7.24
2019-02-10T02:14:39.339Z,7.24
2019-02-10T02:17:08.684Z,7.25
2019-02-10T02:19:38.003Z,7.25
2019-02-10T02:22:07.488Z,7.30
2019-02-10T02:24:38.723Z,7.28
2019-02-10T02:27:08.088Z,7.30
2019-02-10T02:29:37.530Z,7.35
2019-02-10T02:32:06.865Z,7.41
2019-02-10T02:34:37.417Z,7.51
2019-02-10T02:37:37.886Z,7.55
2019-02-10T02:43:59.811Z,7.56
2019-02-10T02:46:29.091Z,7.49
2019-02-10T02:48:58.404Z,7.44
2019-02-10T02:51:38.700Z,7.42
2019-02-10T02:54:15.908Z,7.36
2019-02-10T02:56:50.893Z,7.39
2019-02-10T02:59:20.222Z,7.33
2019-02-10T03:01:51.779Z,7.24
2019-02-10T03:04:21.119Z,7.23
2019-02-10T03:06:51.452Z,7.21
2019-02-10T03:09:38.700Z,7.16
2019-02-10T03:12:11.069Z,7.11
2019-02-10T03:14:40.831Z,7.09
2019-02-10T03:17:10.148Z,7.07
2019-02-10T03:19:40.070Z,7.02
2019-02-10T03:22:09.932Z,6.95
2019-02-10T03:24:40.934Z,6.90
2019-02-10T03:27:10.201Z,6.86
2019-02-10T03:29:39.516Z,6.86
2019-02-10T03:32:10.903Z,6.85
2019-02-10T03:34:46.005Z,6.88
2019-02-10T03:37:16.278Z,6.87
2019-02-10T03:39:58.232Z,6.86
2019-02-10T03:42:37.032Z,6.81
2019-02-10T03:45:32.132Z,6.77
2019-02-10T03:48:01.416Z,6.77
2019-02-10T03:50:49.747Z,6.76
2019-02-10T03:53:20.522Z,6.75
2019-02-10T03:55:51.610Z,6.73
2019-02-10T03:58:21.018Z,6.75
2019-02-10T04:00:58.625Z,6.73
2019-02-10T04:03:28.901Z,6.75
2019-02-10T04:05:59.120Z,6.71
2019-02-10T04:08:28.567Z,6.73
2019-02-10T04:10:57.989Z,6.73
2019-02-10T04:13:28.566Z,6.73
2019-02-10T04:15:57.846Z,6.70
2019-02-10T04:18:28.390Z,6.66
2019-02-10T04:20:57.794Z,6.66
2019-02-10T04:23:27.603Z,6.64
2019-02-10T04:25:59.553Z,6.63
2019-02-10T04:28:31.079Z,6.60
2019-02-10T04:31:00.784Z,6.59
2019-02-10T04:33:31.192Z,6.55
2019-02-10T04:36:01.216Z,6.52
2019-02-10T04:38:32.060Z,6.54
2019-02-10T04:41:01.524Z,6.49
2019-02-10T04:43:31.182Z,6.45
2019-02-10T04:46:01.999Z,6.48
2019-02-10T04:48:33.203Z,6.42
2019-02-10T04:51:02.517Z,6.36
2019-02-10T04:53:31.802Z,6.37
2019-02-10T04:56:19.762Z,6.39
2019-02-10T04:58:49.696Z,6.38
2019-02-10T05:01:18.920Z,6.35
2019-02-10T05:03:48.224Z,6.32
2019-02-10T05:06:17.813Z,6.33
2019-02-10T05:08:47.167Z,6.30
2019-02-10T05:11:17.386Z,6.30
2019-02-10T05:13:46.817Z,6.27
2019-02-10T05:16:16.207Z,6.29
2019-02-10T05:18:45.453Z,6.27
2019-02-10T05:21:15.802Z,6.27
2019-02-10T05:23:45.098Z,6.25
2019-02-10T05:26:14.505Z,6.26
2019-02-10T05:28:43.976Z,6.26
2019-02-10T05:31:13.319Z,6.27
2019-02-10T05:33:42.782Z,6.29
2019-02-10T05:36:12.097Z,6.26
2019-02-10T05:38:42.414Z,6.25
2019-02-10T05:41:11.956Z,6.24
2019-02-10T05:43:41.258Z,6.24
2019-02-10T05:46:10.974Z,6.24
2019-02-10T05:48:40.384Z,6.24
2019-02-10T05:51:09.742Z,6.24
2019-02-10T05:53:39.166Z,6.24
2019-02-10T05:56:08.542Z,6.25
2019-02-10T05:58:37.789Z,6.26
2019-02-10T06:01:42.454Z,6.27
2019-02-10T06:04:11.878Z,6.29
2019-02-10T06:06:41.313Z,6.29
2019-02-10T06:09:10.605Z,6.30
2019-02-10T06:11:39.947Z,6.30
2019-02-10T06:14:09.186Z,6.32
2019-02-10T06:16:38.526Z,6.32
2019-02-10T06:19:07.849Z,6.32
2019-02-10T06:21:37.159Z,6.32
2019-02-10T06:24:06.506Z,6.49
2019-02-10T06:26:35.877Z,6.45
2019-02-10T06:29:05.259Z,6.38
2019-02-10T06:31:34.488Z,6.39
2019-02-10T06:34:03.751Z,6.41
2019-02-10T06:36:33.040Z,6.42
2019-02-10T06:39:04.323Z,6.44
2019-02-10T06:41:33.751Z,6.60
2019-02-10T06:44:02.996Z,6.57
2019-02-10T06:46:34.127Z,6.55
2019-02-10T06:49:03.487Z,6.54
2019-02-10T06:51:32.931Z,6.59
2019-02-10T06:54:02.621Z,6.63
2019-02-10T06:56:32.000Z,6.65
2019-02-10T06:59:01.320Z,6.69
2019-02-10T07:01:40.702Z,6.69
2019-02-10T07:04:21.392Z,6.69
2019-02-10T07:06:50.795Z,6.75
2019-02-10T07:09:20.404Z,6.77
2019-02-10T07:11:49.973Z,6.79
2019-02-10T07:14:26.334Z,6.79
2019-02-10T07:17:27.841Z,6.84
2019-02-10T07:20:22.800Z,6.86
2019-02-10T07:23:28.469Z,6.91
2019-02-10T07:26:00.657Z,6.91
2019-02-10T07:29:08.385Z,6.94
2019-02-10T07:31:48.026Z,6.98
2019-02-10T07:34:53.187Z,7.00
2019-02-10T07:37:42.056Z,7.10
2019-02-10T07:41:03.543Z,7.17
2019-02-10T07:44:21.649Z,7.22
2019-02-10T07:47:12.660Z,7.25
2019-02-10T07:50:03.480Z,7.31
2019-02-10T07:53:02.587Z,7.36
2019-02-10T07:55:59.192Z,7.38
2019-02-10T07:59:07.362Z,7.42
2019-02-10T08:02:11.236Z,7.50
2019-02-10T08:05:16.760Z,7.56
2019-02-10T08:08:16.111Z,7.58
2019-02-10T08:11:26.012Z,7.62
2019-02-10T08:14:24.531Z,7.68
2019-02-10T08:17:36.465Z,7.74
2019-02-10T08:20:33.772Z,7.81
2019-02-10T08:23:28.936Z,7.81
2019-02-10T08:26:25.104Z,7.85
2019-02-10T08:29:22.278Z,7.93
2019-02-10T08:32:17.212Z,7.93
2019-02-10T08:35:27.427Z,8.04
2019-02-10T08:38:17.515Z,8.05
2019-02-10T08:41:23.585Z,8.15
2019-02-10T08:44:26.993Z,8.21
2019-02-10T08:47:17.216Z,8.22
2019-02-10T08:50:21.143Z,8.28
2019-02-10T08:52:55.154Z,8.35
2019-02-10T08:55:24.615Z,8.40
2019-02-10T08:57:53.951Z,8.44
2019-02-10T09:00:23.356Z,8.48
2019-02-10T09:02:54.094Z,8.44
2019-02-10T09:05:23.428Z,8.42
2019-02-10T09:07:52.812Z,8.46
2019-02-10T09:10:24.892Z,8.50
2019-02-10T09:12:54.920Z,8.57
2019-02-10T09:15:24.333Z,8.60
2019-02-10T09:17:53.645Z,8.64
2019-02-10T09:20:23.025Z,8.64
2019-02-10T09:22:52.292Z,8.62
2019-02-10T09:25:21.616Z,8.61
2019-02-10T09:27:50.980Z,8.65
2019-02-10T09:30:23.126Z,8.69
2019-02-10T09:32:52.628Z,8.77
2019-02-10T09:35:22.737Z,8.83
2019-02-10T09:37:52.438Z,8.95
2019-02-10T09:40:21.673Z,9.01
2019-02-10T09:42:50.966Z,9.06
2019-02-10T09:45:21.742Z,9.07
2019-02-10T09:47:50.968Z,9.18
2019-02-10T09:50:21.292Z,9.30
2019-02-10T09:52:50.971Z,9.43
2019-02-10T09:55:20.364Z,9.43
2019-02-10T09:57:49.710Z,9.41
2019-02-10T10:00:19.016Z,9.40
2019-02-10T10:02:48.296Z,9.51
2019-02-10T10:05:17.619Z,9.51
2019-02-10T10:07:46.911Z,9.46
2019-02-10T10:10:16.266Z,9.49
2019-02-10T10:12:45.470Z,9.45
2019-02-10T10:15:15.579Z,9.34
2019-02-10T10:17:44.930Z,9.38
2019-02-10T10:20:15.920Z,9.35
2019-02-10T10:22:45.287Z,9.35
2019-02-10T10:25:14.827Z,9.33
2019-02-10T10:27:45.447Z,9.37
2019-02-10T10:30:16.842Z,9.40
2019-02-10T10:32:46.270Z,9.49
2019-02-10T10:35:15.578Z,9.51
2019-02-10T10:37:45.026Z,9.53
2019-02-10T10:40:14.332Z,9.57
2019-02-10T10:42:43.908Z,9.65
2019-02-10T10:45:13.787Z,9.69
2019-02-10T10:47:43.420Z,9.69
2019-02-10T10:50:13.165Z,9.66
2019-02-10T10:52:42.733Z,9.69
2019-02-10T10:55:12.280Z,9.65
2019-02-10T10:57:41.910Z,9.65
2019-02-10T11:00:12.441Z,9.64
2019-02-10T11:02:44.750Z,9.64
2019-02-10T11:05:14.942Z,9.65
2019-02-10T11:07:44.997Z,9.55
2019-02-10T11:10:14.755Z,9.61
2019-02-10T11:12:44.332Z,9.62
2019-02-10T11:15:13.787Z,9.61
2019-02-10T11:17:43.081Z,9.57
2019-02-10T11:20:12.701Z,9.63
2019-02-10T11:22:42.180Z,9.56
2019-02-10T11:25:11.864Z,9.61
2019-02-10T11:27:41.670Z,9.68
2019-02-10T11:30:11.580Z,9.63
2019-02-10T11:32:41.255Z,9.64
2019-02-10T11:35:10.962Z,9.66
2019-02-10T11:37:40.480Z,9.67
2019-02-10T11:40:10.053Z,9.61
2019-02-10T11:42:39.672Z,9.58
2019-02-10T11:45:10.065Z,9.59
2019-02-10T11:47:39.512Z,9.63
2019-02-10T11:50:10.110Z,9.59
2019-02-10T11:52:39.632Z,9.70
2019-02-10T11:55:09.207Z,9.67
2019-02-10T11:57:39.472Z,9.75
2019-02-10T12:00:10.233Z,9.91
2019-02-10T12:02:40.134Z,9.99
2019-02-10T12:05:10.789Z,9.90
2019-02-10T12:07:40.503Z,9.86
2019-02-10T12:10:10.203Z,9.95
2019-02-10T12:12:39.732Z,10.12
2019-02-10T12:15:09.900Z,10.11
2019-02-10T12:17:42.020Z,10.07
2019-02-10T12:20:11.890Z,10.02
2019-02-10T12:22:49.921Z,9.97
2019-02-10T12:25:14.362Z,9.81
2019-02-10T12:27:44.068Z,9.79
2019-02-10T12:30:14.564Z,9.64
2019-02-10T12:32:44.761Z,9.61
2019-02-10T12:35:14.526Z,9.59
2019-02-10T12:37:44.253Z,9.49
2019-02-10T12:40:14.662Z,9.63
2019-02-10T12:42:46.689Z,9.62
2019-02-10T12:45:16.747Z,9.72
2019-02-10T12:47:46.357Z,9.83
2019-02-10T12:50:16.051Z,9.95
2019-02-10T12:52:48.347Z,10.00
2019-02-10T12:55:21.051Z,10.05
2019-02-10T12:57:51.862Z,10.15
2019-02-10T13:00:24.825Z,10.07
2019-02-10T13:02:54.693Z,10.06
2019-02-10T13:05:24.558Z,10.06
2019-02-10T13:07:56.917Z,10.19
2019-02-10T13:10:26.575Z,10.19
2019-02-10T13:12:56.491Z,10.17
2019-02-10T13:15:26.435Z,10.05
2019-02-10T13:18:05.340Z,9.96
2019-02-10T13:20:37.092Z,9.70
2019-02-10T13:23:13.458Z,9.61
2019-02-10T13:25:58.202Z,9.55
2019-02-10T13:28:31.886Z,9.45
2019-02-10T13:31:06.562Z,9.32
2019-02-10T13:33:59.274Z,9.30
2019-02-10T13:36:28.949Z,9.34
2019-02-10T13:38:58.986Z,9.32
2019-02-10T13:41:36.039Z,9.20
2019-02-10T13:44:06.753Z,9.23
2019-02-10T13:46:36.449Z,9.24
2019-02-10T13:49:06.072Z,9.24
2019-02-10T13:51:35.761Z,9.37
2019-02-10T13:54:05.532Z,9.42
2019-02-10T13:56:36.670Z,9.54
2019-02-10T13:59:06.503Z,9.50
2019-02-10T14:01:36.290Z,9.44
2019-02-10T14:04:05.970Z,9.28
2019-02-10T14:06:35.649Z,9.17
2019-02-10T14:09:06.365Z,9.08
2019-02-10T14:11:36.167Z,9.06
2019-02-10T14:14:06.927Z,9.17
2019-02-10T14:16:36.831Z,9.35
2019-02-10T14:19:06.477Z,9.27
2019-02-10T14:21:36.178Z,9.38
2019-02-10T14:24:05.951Z,9.33
2019-02-10T14:26:35.664Z,9.49
2019-02-10T14:29:05.371Z,9.56
2019-02-10T14:31:36.855Z,10.24
2019-02-10T14:34:06.557Z,10.89
2019-02-10T14:36:36.209Z,12.19
2019-02-10T14:39:06.110Z,11.29
2019-02-10T14:41:35.810Z,10.60
2019-02-10T14:44:05.464Z,10.06
2019-02-10T14:46:36.326Z,9.78
2019-02-10T14:49:06.777Z,9.76
2019-02-10T14:51:36.378Z,9.67
2019-02-10T14:54:06.040Z,9.64
2019-02-10T14:56:36.827Z,9.57
2019-02-10T14:59:06.928Z,9.55
2019-02-10T15:01:37.873Z,9.47
2019-02-10T15:04:07.496Z,9.42
2019-02-10T15:06:37.136Z,9.39
2019-02-10T15:09:09.728Z,9.28
2019-02-10T15:11:40.112Z,9.18
2019-02-10T15:14:09.891Z,9.15
2019-02-10T15:16:39.697Z,9.24
2019-02-10T15:19:09.671Z,9.22
2019-02-10T15:21:42.382Z,9.07
2019-02-10T15:24:12.153Z,9.16
2019-02-10T15:26:41.682Z,8.97
2019-02-10T15:29:11.703Z,8.91
2019-02-10T15:31:42.437Z,8.92
2019-02-10T15:34:11.968Z,8.85
2019-02-10T15:36:41.614Z,8.80
2019-02-10T15:39:11.669Z,8.80
2019-02-10T15:41:41.642Z,8.81
2019-02-10T15:44:11.420Z,8.76
2019-02-10T15:46:41.200Z,8.66
2019-02-10T15:49:11.013Z,8.66
2019-02-10T15:51:40.691Z,8.60
2019-02-10T15:54:10.378Z,8.56
2019-02-10T15:56:39.978Z,8.54
2019-02-10T15:59:09.538Z,8.52
2019-02-10T16:01:39.350Z,8.52
2019-02-10T16:04:11.056Z,8.41
2019-02-10T16:06:41.880Z,8.32
2019-02-10T16:09:11.460Z,8.07
2019-02-10T16:11:54.581Z,7.91
2019-02-10T16:14:27.351Z,7.78
2019-02-10T16:17:00.059Z,7.57
2019-02-10T16:19:29.914Z,7.45
2019-02-10T16:21:59.713Z,7.45
2019-02-10T16:24:29.407Z,7.38
2019-02-10T16:27:01.598Z,7.32
2019-02-10T16:29:34.307Z,7.40
2019-02-10T16:32:04.930Z,7.38
2019-02-10T16:34:36.270Z,7.23
2019-02-10T16:37:06.469Z,7.15
2019-02-10T16:39:36.433Z,7.05
2019-02-10T16:42:07.385Z,6.98
2019-02-10T16:44:42.990Z,6.93
2019-02-10T16:47:12.797Z,6.98
2019-02-10T16:49:42.651Z,6.94
2019-02-10T16:52:12.641Z,6.89
2019-02-10T16:54:43.130Z,6.81
2019-02-10T16:57:16.907Z,6.75
2019-02-10T16:59:46.895Z,6.81
2019-02-10T17:02:17.516Z,6.78
2019-02-10T17:04:51.297Z,6.85
2019-02-10T17:07:21.094Z,6.84
2019-02-10T17:09:50.821Z,6.74
2019-02-10T17:12:24.390Z,6.68
2019-02-10T17:14:55.496Z,6.64
2019-02-10T17:17:31.743Z,6.69
2019-02-10T17:20:12.553Z,6.64
2019-02-10T17:22:54.557Z,6.63
2019-02-10T17:25:31.585Z,6.60
2019-02-10T17:28:08.391Z,6.56
2019-02-10T17:30:38.223Z,6.50
2019-02-10T17:33:11.523Z,6.44
2019-02-10T17:35:43.818Z,6.39
2019-02-10T17:38:13.918Z,6.29
2019-02-10T17:40:52.620Z,6.21
2019-02-10T17:43:28.286Z,6.20
2019-02-10T17:45:56.366Z,6.32
2019-02-10T17:48:36.005Z,6.29
2019-02-10T17:51:15.800Z,6.24
2019-02-10T17:53:47.247Z,6.16
2019-02-10T17:56:17.046Z,5.96
2019-02-10T17:58:52.535Z,5.89
2019-02-10T18:01:24.132Z,5.90
2019-02-10T18:03:53.958Z,5.94
2019-02-10T18:06:24.228Z,5.75
2019-02-10T18:08:54.091Z,5.65
2019-02-10T18:11:30.841Z,5.65
2019-02-10T18:14:00.460Z,5.57
2019-02-10T18:16:47.541Z,5.66
2019-02-10T18:19:34.431Z,5.53
2019-02-10T18:22:21.746Z,5.39
2019-02-10T18:25:10.542Z,5.27
2019-02-10T18:27:59.836Z,5.13
2019-02-10T18:30:46.988Z,5.13
2019-02-10T18:33:34.720Z,4.97
2019-02-10T18:36:27.071Z,4.97
2019-02-10T18:39:13.946Z,4.83
2019-02-10T18:42:01.656Z,4.65
2019-02-10T18:45:00.470Z,4.57
2019-02-10T18:47:59.542Z,4.52
2019-02-10T18:51:01.984Z,4.52
2019-02-10T18:54:03.608Z,4.53
2019-02-10T18:57:04.994Z,4.56
2019-02-10T18:59:44.298Z,4.54
2019-02-10T19:02:32.911Z,4.42
2019-02-10T19:05:26.382Z,4.29
2019-02-10T19:08:29.863Z,4.35
2019-02-10T19:11:14.530Z,4.35
2019-02-10T19:14:22.110Z,4.40
2019-02-10T19:17:24.621Z,4.31
2019-02-10T19:20:25.932Z,4.25
2019-02-10T19:23:19.749Z,4.26
2019-02-10T19:26:09.067Z,4.31
2019-02-10T19:28:54.050Z,4.30
2019-02-10T19:32:09.496Z,4.25
2019-02-10T19:34:51.041Z,4.22
2019-02-10T19:37:38.066Z,4.23
2019-02-10T19:40:32.925Z,4.24
2019-02-10T19:43:31.854Z,4.24
2019-02-10T19:46:18.756Z,4.21
2019-02-10T19:49:10.627Z,4.24
2019-02-10T19:52:04.121Z,4.27
2019-02-10T19:54:44.846Z,4.20
2019-02-10T19:57:35.414Z,4.24
2019-02-10T20:00:38.824Z,4.29
2019-02-10T20:03:27.005Z,4.21
2019-02-10T20:06:16.877Z,4.19
2019-02-10T20:09:06.563Z,4.19
2019-02-10T20:11:46.094Z,4.18
2019-02-10T20:14:37.612Z,4.23
2019-02-10T20:17:32.557Z,4.27
2019-02-10T20:20:27.868Z,4.19
2019-02-10T20:23:19.666Z,4.19
2019-02-10T20:26:07.304Z,4.23
2019-02-10T20:28:56.948Z,4.21
2019-02-10T20:31:47.050Z,4.22
2019-02-10T20:34:48.560Z,4.23
2019-02-10T20:37:42.910Z,4.23
2019-02-10T20:40:40.770Z,4.23
2019-02-10T20:43:56.896Z,4.18
2019-02-10T20:46:54.399Z,4.20
2019-02-10T20:49:43.766Z,4.25
2019-02-10T20:52:34.665Z,4.16
2019-02-10T20:55:15.741Z,4.12
2019-02-10T20:58:04.116Z,4.03
2019-02-10T21:00:48.813Z,4.02
2019-02-10T21:03:49.608Z,4.05
2019-02-10T21:06:53.295Z,4.08
2019-02-10T21:09:29.921Z,3.94
2019-02-10T21:12:26.007Z,3.88
2019-02-10T21:15:13.106Z,3.79
2019-02-10T21:18:04.491Z,3.68
2019-02-10T21:20:56.397Z,3.54
2019-02-10T21:23:45.602Z,3.60
2019-02-10T21:26:35.061Z,3.59
2019-02-10T21:29:19.943Z,3.50
2019-02-10T21:32:20.667Z,3.52
2019-02-10T21:35:07.827Z,3.53
2019-02-10T21:37:49.688Z,3.41
2019-02-10T21:40:43.944Z,3.38
2019-02-10T21:43:41.468Z,3.29
2019-02-10T21:46:17.397Z,3.23
2019-02-10T21:48:55.123Z,3.11
2019-02-10T21:51:24.836Z,3.08
2019-02-10T21:53:58.582Z,3.05
2019-02-10T21:56:28.596Z,3.05
2019-02-10T21:58:58.381Z,3.03
2019-02-10T22:01:28.084Z,2.98
2019-02-10T22:03:57.846Z,3.00
2019-02-10T22:06:27.691Z,3.04
2019-02-10T22:08:59.012Z,2.97
2019-02-10T22:11:28.583Z,2.97
2019-02-10T22:13:58.140Z,2.94
2019-02-10T22:16:27.587Z,3.01
2019-02-10T22:18:57.300Z,3.00
2019-02-10T22:21:26.738Z,3.04
2019-02-10T22:23:57.436Z,3.06
2019-02-10T22:26:26.768Z,3.04
2019-02-10T22:28:56.300Z,3.15
2019-02-10T22:31:26.081Z,3.11
2019-02-10T22:33:56.838Z,3.21
2019-02-10T22:36:27.019Z,3.18
2019-02-10T22:38:57.157Z,3.27
2019-02-10T22:41:26.806Z,3.26
2019-02-10T22:43:57.081Z,3.33
2019-02-10T22:46:27.421Z,3.42
2019-02-10T22:48:59.381Z,3.50
2019-02-10T22:51:29.540Z,3.46
2019-02-10T22:53:58.860Z,3.58
2019-02-10T22:56:28.100Z,3.58
2019-02-10T22:58:59.343Z,3.75
2019-02-10T23:01:29.154Z,3.85
2019-02-10T23:03:58.831Z,3.89
2019-02-10T23:06:28.221Z,3.95
2019-02-10T23:08:57.604Z,4.03
2019-02-10T23:11:27.820Z,4.12
2019-02-10T23:13:57.398Z,4.10
2019-02-10T23:16:27.101Z,4.14
2019-02-10T23:18:56.563Z,4.19
2019-02-10T23:21:25.880Z,4.14
2019-02-10T23:23:55.341Z,4.16
2019-02-10T23:26:24.732Z,4.21
2019-02-10T23:28:54.045Z,4.23
2019-02-10T23:31:23.448Z,4.27
2019-02-10T23:33:53.098Z,4.38
2019-02-10T23:36:22.681Z,4.39
2019-02-10T23:38:51.980Z,4.41
2019-02-10T23:41:22.169Z,4.49
2019-02-10T23:43:51.702Z,4.58
2019-02-10T23:46:22.007Z,4.75
2019-02-10T23:48:51.422Z,4.87
2019-02-10T23:51:20.786Z,4.99
2019-02-10T23:53:50.102Z,5.07
2019-02-10T23:56:19.680Z,5.13
2019-02-10T23:58:48.970Z,5.20
